Time;durP1;ratioP1;P1;durP2;ratioP2;P2;SDS_P1;SDS_P2;PMS_P1;PMS_P2;Temp;Humidity;BMP_temperature;BMP_pressure;BME280_temperature;BME280_humidity;BME280_pressure;Samples;Min_cycle;Max_cycle;Signal;HPM_P1;HPM_P2
2022/12/30 00:00:55;;;;;;;2.28;0.88;;;;;;;4.71;100.00;93816.63;4990200;28;20121;-66
2022/12/30 00:03:23;;;;;;;2.15;0.90;;;;;;;4.62;100.00;93818.94;4990126;28;20052;-64
2022/12/30 00:05:49;;;;;;;35.55;17.80;;;;;;;4.68;100.00;93828.28;4989928;28;20068;-64
2022/12/30 00:11:01;;;;;;;1.87;0.83;;;;;;;4.71;100.00;93833.75;4989931;28;20046;-65
2022/12/30 00:33:22;;;;;;;2.47;0.55;;;;;;;4.13;100.00;93837.25;4989718;28;20309;-65
2022/12/30 00:35:49;;;;;;;2.08;0.80;;;;;;;4.27;100.00;93836.56;4989743;28;20046;-65
2022/12/30 00:38:15;;;;;;;1.80;0.77;;;;;;;4.24;100.00;93826.44;4990799;28;20039;-66
2022/12/30 00:43:07;;;;;;;2.50;0.82;;;;;;;4.32;100.00;93825.34;4989738;28;20047;-65
2022/12/30 00:43:29;;;;;;;4.57;2.22;;;;;;;4.27;100.00;93831.16;4989957;28;20570;-66
2022/12/30 00:45:56;;;;;;;4.28;2.20;;;;;;;4.30;100.00;93814.84;4989603;28;20050;-66
2022/12/30 00:56:42;;;;;;;1.70;0.70;;;;;;;4.18;100.00;93821.34;5004176;28;20125;-65
2022/12/30 00:59:09;;;;;;;2.60;0.88;;;;;;;4.14;100.00;93815.13;4990121;28;20050;-65
2022/12/30 01:01:35;;;;;;;2.22;0.90;;;;;;;4.03;100.00;93824.38;4990037;28;20115;-65
2022/12/30 01:04:02;;;;;;;1.63;0.73;;;;;;;4.04;100.00;93823.97;4989400;28;20049;-65
2022/12/30 01:06:29;;;;;;;1.70;0.80;;;;;;;4.08;100.00;93834.88;4989788;28;20043;-64
2022/12/30 01:08:56;;;;;;;1.60;0.70;;;;;;;4.06;100.00;93834.47;4990322;28;20054;-65
2022/12/30 01:11:23;;;;;;;1.80;0.80;;;;;;;4.07;100.00;93834.09;4993599;28;20045;-66
2022/12/30 01:13:50;;;;;;;1.58;0.70;;;;;;;4.15;100.00;93843.84;4992620;28;20072;-66
2022/12/30 01:16:17;;;;;;;1.87;0.77;;;;;;;4.14;100.00;93841.50;4993460;28;20046;-65
2022/12/30 01:18:44;;;;;;;1.50;0.55;;;;;;;4.19;100.00;93841.16;4997241;28;20127;-64
2022/12/30 01:21:11;;;;;;;1.80;0.73;;;;;;;4.13;100.00;93848.88;5001322;28;20104;-64
2022/12/30 01:23:38;;;;;;;1.83;0.70;;;;;;;4.15;100.00;93843.09;4991885;28;20042;-65
2022/12/30 01:26:06;;;;;;;3.78;1.38;;;;;;;4.11;100.00;93850.41;4992245;28;20077;-65
2022/12/30 01:28:35;;;;;;;2.33;1.00;;;;;;;4.16;100.00;93861.69;4992791;28;20140;-65
2022/12/30 01:31:10;;;;;;;2.13;1.10;;;;;;;4.12;100.00;93863.59;4992441;28;20410;-65
2022/12/30 01:33:37;;;;;;;1.90;0.80;;;;;;;4.21;100.00;93868.75;4991724;28;20077;-66
2022/12/30 01:36:05;;;;;;;4.57;0.70;;;;;;;4.27;100.00;93874.59;4992802;28;20049;-66
2022/12/30 01:38:32;;;;;;;1.88;0.70;;;;;;;4.14;100.00;93885.72;4992433;28;20521;-65
2022/12/30 01:40:59;;;;;;;5.80;2.90;;;;;;;4.11;100.00;93878.34;4992518;28;20052;-64
2022/12/30 01:43:47;;;;;;;4.95;2.28;;;;;;;4.07;100.00;93891.13;4995347;28;20553;-66
2022/12/30 01:46:20;;;;;;;2.50;0.85;;;;;;;4.00;100.00;93893.75;4999628;28;20833;-65
2022/12/30 01:48:49;;;;;;;2.20;0.65;;;;;;;4.00;100.00;93897.28;4991920;28;20054;-65
2022/12/30 01:51:28;;;;;;;1.70;0.68;;;;;;;4.10;100.00;93906.66;4992670;28;20052;-65
2022/12/30 01:53:59;;;;;;;3.10;0.80;;;;;;;4.06;100.00;93897.69;4978334;28;20042;-65
2022/12/30 01:56:33;;;;;;;2.97;1.20;;;;;;;4.03;100.00;93901.16;4993100;28;20042;-65
2022/12/30 01:59:05;;;;;;;3.08;1.48;;;;;;;4.01;100.00;93900.75;4992301;28;20444;-65
2022/12/30 02:01:34;;;;;;;2.00;0.85;;;;;;;3.96;100.00;93907.31;4992121;28;20045;-65
2022/12/30 02:04:05;;;;;;;1.88;0.63;;;;;;;3.93;100.00;93908.06;4991711;28;20052;-65
2022/12/30 02:06:58;;;;;;;1.80;0.70;;;;;;;3.84;100.00;93896.72;4992501;28;20122;-64
2022/12/30 02:09:26;;;;;;;1.60;0.65;;;;;;;3.82;100.00;93900.97;4963416;28;20421;-65
2022/12/30 02:11:55;;;;;;;2.75;1.00;;;;;;;3.83;100.00;93903.31;4991555;28;20061;-65
2022/12/30 02:14:23;;;;;;;2.95;0.90;;;;;;;3.77;100.00;93902.84;4992422;28;20139;-65
2022/12/30 02:17:04;;;;;;;1.80;0.70;;;;;;;3.83;100.00;93902.53;4991682;28;20120;-65
2022/12/30 02:19:40;;;;;;;2.37;0.70;;;;;;;3.81;100.00;93900.19;4992196;28;20042;-65
2022/12/30 02:22:26;;;;;;;1.75;0.75;;;;;;;3.78;100.00;93898.19;4990548;28;20863;-65
2022/12/30 02:25:02;;;;;;;1.90;1.02;;;;;;;3.72;100.00;93892.34;4991752;28;20052;-65
2022/12/30 02:27:29;;;;;;;4.45;2.53;;;;;;;3.75;100.00;93888.88;4991938;28;20046;-65
2022/12/30 02:30:04;;;;;;;1.95;0.93;;;;;;;3.76;100.00;93895.06;4991200;28;20442;-65
2022/12/30 02:33:00;;;;;;;2.73;1.40;;;;;;;3.72;100.00;93888.84;4992137;28;20041;-65
2022/12/30 02:35:31;;;;;;;2.10;1.10;;;;;;;3.71;100.00;93896.19;4976869;28;20691;-65
2022/12/30 02:38:39;;;;;;;2.03;0.85;;;;;;;3.70;100.00;93905.50;4991468;28;20442;-64
2022/12/30 02:47:14;;;;;;;2.37;0.70;;;;;;;3.76;100.00;93895.88;4980780;28;20122;-64
2022/12/30 02:52:13;;;;;;;1.90;0.93;;;;;;;3.75;100.00;93896.25;4990991;28;20048;-63
2022/12/30 02:52:33;;;;;;;2.00;1.00;;;;;;;3.83;100.00;93883.53;4992318;28;20104;-64
2022/12/30 02:55:00;;;;;;;2.20;0.98;;;;;;;3.82;100.00;93885.44;5003039;28;20053;-64
2022/12/30 02:57:30;;;;;;;1.90;0.95;;;;;;;3.83;100.00;93884.31;4991660;28;20038;-64
2022/12/30 03:06:00;;;;;;;2.10;1.20;;;;;;;3.82;100.00;93884.66;4991258;28;20064;-64
2022/12/30 03:08:58;;;;;;;2.17;0.90;;;;;;;3.83;100.00;93888.97;4990590;28;20453;-64
2022/12/30 03:11:33;;;;;;;2.90;1.38;;;;;;;3.85;100.00;93892.84;4984912;28;20466;-64
2022/12/30 03:14:02;;;;;;;2.43;1.00;;;;;;;3.88;100.00;93894.03;4996304;28;20134;-64
2022/12/30 03:16:47;;;;;;;2.50;1.10;;;;;;;3.87;100.00;93895.22;4998192;28;20050;-64
2022/12/30 03:19:19;;;;;;;2.38;1.20;;;;;;;3.95;100.00;93892.16;4979281;28;21531;-64
2022/12/30 03:21:49;;;;;;;2.20;1.10;;;;;;;4.01;100.00;93889.91;4989981;28;20042;-64
2022/12/30 03:27:08;;;;;;;2.40;1.10;;;;;;;3.97;100.00;93892.59;4990490;28;20509;-64
2022/12/30 03:29:39;;;;;;;2.30;1.23;;;;;;;4.02;100.00;93886.03;4990869;28;20038;-64
2022/12/30 03:32:10;;;;;;;2.15;1.10;;;;;;;4.09;100.00;93882.59;4989947;28;20651;-64
2022/12/30 03:34:37;;;;;;;2.22;0.90;;;;;;;3.99;100.00;93878.63;4990687;28;20050;-64
2022/12/30 03:37:14;;;;;;;2.85;1.17;;;;;;;3.99;100.00;93875.91;4990200;28;20054;-64
2022/12/30 03:39:47;;;;;;;2.40;1.10;;;;;;;4.06;100.00;93880.63;4988965;28;20455;-64
2022/12/30 03:42:15;;;;;;;2.80;1.20;;;;;;;3.97;100.00;93880.94;4990122;28;20042;-64
2022/12/30 03:44:44;;;;;;;2.85;1.35;;;;;;;3.98;100.00;93879.78;4990641;28;20471;-64
2022/12/30 03:47:13;;;;;;;2.78;1.23;;;;;;;4.01;100.00;93873.63;4990871;28;20388;-64
2022/12/30 03:49:42;;;;;;;2.13;1.00;;;;;;;4.08;100.00;93881.03;4990003;28;20042;-62
2022/12/30 03:52:14;;;;;;;2.83;1.20;;;;;;;4.03;100.00;93881.38;4990758;28;20118;-64
2022/12/30 03:54:42;;;;;;;2.15;1.10;;;;;;;4.04;100.00;93880.22;4989856;28;20054;-64
2022/12/30 03:57:09;;;;;;;1.95;0.88;;;;;;;4.10;100.00;93881.44;4990787;28;20049;-64
2022/12/30 03:59:35;;;;;;;2.10;1.10;;;;;;;4.14;100.00;93884.97;4990803;28;20047;-64
2022/12/30 04:02:02;;;;;;;2.53;1.00;;;;;;;4.04;100.00;93874.78;4989793;28;20051;-64
2022/12/30 04:04:29;;;;;;;3.33;1.40;;;;;;;3.97;100.00;93873.56;4990523;28;20088;-64
2022/12/30 04:06:55;;;;;;;2.28;1.02;;;;;;;3.93;100.00;93869.28;4989822;28;20450;-64
2022/12/30 04:09:22;;;;;;;2.85;1.00;;;;;;;3.83;100.00;93870.72;4990727;28;20100;-64
2022/12/30 04:11:49;;;;;;;2.75;1.17;;;;;;;3.84;100.00;93864.13;4989814;28;20399;-64
2022/12/30 04:14:16;;;;;;;2.28;1.10;;;;;;;3.81;100.00;93864.91;4990507;28;20042;-65
2022/12/30 04:16:42;;;;;;;2.20;1.10;;;;;;;3.78;100.00;93873.78;5004766;28;20039;-65
2022/12/30 04:19:09;;;;;;;3.03;1.40;;;;;;;3.82;100.00;93871.88;4990225;28;20046;-64
2022/12/30 04:21:36;;;;;;;2.35;1.17;;;;;;;3.79;100.00;93859.84;4990470;28;20053;-65
2022/12/30 04:24:04;;;;;;;2.88;1.10;;;;;;;3.79;100.00;93870.69;4989768;28;20422;-64
2022/12/30 04:26:31;;;;;;;2.92;1.30;;;;;;;3.72;100.00;93872.56;4990444;28;20046;-64
2022/12/30 04:28:58;;;;;;;4.40;1.13;;;;;;;3.74;100.00;93871.03;4992171;28;20054;-64
2022/12/30 04:31:25;;;;;;;2.15;0.80;;;;;;;3.72;100.00;93867.94;4990368;28;20038;-64
2022/12/30 04:33:53;;;;;;;1.90;0.90;;;;;;;3.66;100.00;93863.97;4989298;28;20046;-65
2022/12/30 04:36:21;;;;;;;2.72;1.00;;;;;;;3.72;100.00;93867.13;4990319;28;20039;-64
2022/12/30 04:38:48;;;;;;;2.45;1.00;;;;;;;3.71;100.00;93868.28;4988397;28;20415;-64
2022/12/30 04:41:17;;;;;;;2.00;1.00;;;;;;;3.71;100.00;93866.34;4989623;28;20415;-64
2022/12/30 04:43:44;;;;;;;2.15;0.85;;;;;;;3.77;100.00;93872.22;4990582;28;20552;-65
2022/12/30 04:46:11;;;;;;;2.45;0.88;;;;;;;3.75;100.00;93869.09;4993758;28;20065;-65
2022/12/30 04:48:37;;;;;;;8.70;3.25;;;;;;;3.75;100.00;93869.09;4993940;28;20046;-65
2022/12/30 04:51:04;;;;;;;2.13;0.80;;;;;;;3.71;100.00;93866.34;4993319;28;20108;-64
2022/12/30 04:53:31;;;;;;;2.03;0.73;;;;;;;3.63;100.00;93861.22;4993780;28;20048;-65
2022/12/30 04:55:58;;;;;;;2.20;0.80;;;;;;;3.56;100.00;93867.34;4993136;28;20052;-64
2022/12/30 04:58:25;;;;;;;2.47;1.00;;;;;;;3.46;100.00;93851.75;4993520;28;20046;-65
2022/12/30 05:00:52;;;;;;;1.73;0.77;;;;;;;3.44;100.00;93871.13;4992650;28;20046;-64
2022/12/30 05:03:19;;;;;;;13.63;7.95;;;;;;;3.44;100.00;93871.13;4993500;28;20402;-64
2022/12/30 05:05:46;;;;;;;3.90;1.60;;;;;;;3.46;100.00;93884.28;4992886;28;20043;-64
2022/12/30 05:08:13;;;;;;;2.35;1.00;;;;;;;3.47;100.00;93875.78;4993644;28;20047;-64
2022/12/30 05:10:40;;;;;;;2.00;0.90;;;;;;;3.50;100.00;93882.41;4993038;28;20050;-64
2022/12/30 05:13:07;;;;;;;2.30;0.80;;;;;;;3.57;100.00;93880.56;4993514;28;20096;-64
2022/12/30 05:15:33;;;;;;;1.80;0.90;;;;;;;3.62;100.00;93874.00;4995341;28;20668;-64
2022/12/30 05:18:00;;;;;;;1.67;0.70;;;;;;;3.63;100.00;93872.88;5005528;28;20042;-65
2022/12/30 05:20:27;;;;;;;1.70;0.65;;;;;;;3.71;100.00;93874.50;4993391;28;20034;-65
2022/12/30 05:22:53;;;;;;;3.40;1.45;;;;;;;3.74;100.00;93864.81;4979540;28;20057;-65
2022/12/30 05:28:05;;;;;;;3.17;1.27;;;;;;;3.68;100.00;93874.44;4980768;28;20396;-64
2022/12/30 05:30:32;;;;;;;2.67;0.90;;;;;;;3.71;100.00;93871.00;4993352;28;20034;-64
2022/12/30 05:32:59;;;;;;;2.20;0.90;;;;;;;3.70;100.00;93874.84;4979503;28;20072;-64
2022/12/30 05:35:25;;;;;;;3.83;1.00;;;;;;;3.72;100.00;93873.34;4993035;28;20479;-65
2022/12/30 05:37:52;;;;;;;2.28;1.08;;;;;;;3.69;100.00;93867.88;4991939;28;20054;-64
2022/12/30 05:40:20;;;;;;;2.92;0.90;;;;;;;3.60;100.00;93868.16;4992020;28;20034;-64
2022/12/30 05:42:47;;;;;;;3.53;1.40;;;;;;;3.52;100.00;93872.75;4992771;28;20058;-64
2022/12/30 05:45:13;;;;;;;3.90;1.33;;;;;;;3.52;100.00;93864.63;4993063;28;20427;-65
2022/12/30 05:47:40;;;;;;;3.47;1.20;;;;;;;3.52;100.00;93872.75;4992309;28;20046;-64
2022/12/30 05:50:07;;;;;;;2.40;1.10;;;;;;;3.57;100.00;93864.28;4992757;28;20038;-65
2022/12/30 05:52:34;;;;;;;2.78;1.30;;;;;;;3.44;100.00;93860.28;4992796;28;20042;-64
2022/12/30 05:55:00;;;;;;;2.37;1.20;;;;;;;3.37;100.00;93860.97;4991694;28;20084;-64
2022/12/30 05:57:27;;;;;;;2.70;1.30;;;;;;;3.32;100.00;93860.50;4992536;28;20479;-64
2022/12/30 05:59:54;;;;;;;2.80;1.30;;;;;;;3.31;100.00;93867.88;4987035;28;20073;-64
2022/12/30 06:02:21;;;;;;;21.80;10.45;;;;;;;3.28;100.00;93863.19;4989028;28;20058;-64
2022/12/30 06:04:47;;;;;;;7.32;3.58;;;;;;;3.13;100.00;93869.59;4991681;28;20046;-64
2022/12/30 06:07:14;;;;;;;7.23;3.90;;;;;;;3.12;100.00;93860.69;4992474;28;20411;-64
2022/12/30 06:09:41;;;;;;;5.20;3.55;;;;;;;3.11;100.00;93853.69;5006983;28;20038;-64
2022/12/30 06:12:07;;;;;;;5.28;2.97;;;;;;;3.17;100.00;93865.75;4992074;28;20043;-64
2022/12/30 06:14:34;;;;;;;3.50;1.80;;;;;;;3.24;100.00;93867.00;4986746;28;20058;-64
2022/12/30 06:17:01;;;;;;;3.50;1.73;;;;;;;3.18;100.00;93853.78;4991489;28;20050;-64
2022/12/30 06:19:27;;;;;;;2.80;1.40;;;;;;;3.23;100.00;93855.38;4992153;28;20423;-64
2022/12/30 06:21:54;;;;;;;3.47;1.80;;;;;;;3.20;100.00;93856.91;4996970;28;20107;-64
2022/12/30 06:24:21;;;;;;;2.58;1.30;;;;;;;3.16;100.00;93856.09;4999182;28;20417;-65
2022/12/30 06:26:47;;;;;;;3.47;1.63;;;;;;;3.13;100.00;93858.75;4991303;28;20058;-64
2022/12/30 06:29:14;;;;;;;2.92;1.33;;;;;;;3.10;100.00;93862.97;4992049;28;20415;-64
2022/12/30 06:31:41;;;;;;;3.57;1.90;;;;;;;3.03;100.00;93857.47;4991399;28;20046;-64
2022/12/30 06:34:07;;;;;;;3.88;1.50;;;;;;;3.04;100.00;93863.66;4991773;28;20050;-65
2022/12/30 06:36:34;;;;;;;4.53;1.83;;;;;;;3.00;100.00;93864.41;4991472;28;20108;-65
2022/12/30 06:39:01;;;;;;;3.42;1.42;;;;;;;3.10;100.00;93862.19;4991453;28;20042;-65
2022/12/30 06:41:27;;;;;;;3.50;1.58;;;;;;;3.18;100.00;93863.84;4991706;28;20047;-65
2022/12/30 06:43:54;;;;;;;3.80;1.30;;;;;;;3.21;100.00;93865.81;4991254;28;20407;-64
2022/12/30 06:46:20;;;;;;;2.67;1.30;;;;;;;3.18;100.00;93861.91;5006679;28;20054;-64
2022/12/30 06:48:47;;;;;;;3.10;1.55;;;;;;;3.16;100.00;93864.22;4990977;28;20054;-64
2022/12/30 06:51:14;;;;;;;2.75;1.30;;;;;;;3.17;100.00;93873.91;4991621;28;20072;-64
2022/12/30 06:53:40;;;;;;;2.90;1.65;;;;;;;3.26;100.00;93875.53;4991290;28;20077;-64
2022/12/30 06:56:07;;;;;;;2.93;1.47;;;;;;;3.33;100.00;93879.13;4996349;28;20240;-65
2022/12/30 06:58:34;;;;;;;3.90;1.83;;;;;;;3.42;100.00;93875.34;4999060;28;20038;-65
2022/12/30 07:01:00;;;;;;;5.75;3.05;;;;;;;3.46;100.00;93873.44;4990509;28;20550;-65
2022/12/30 07:03:27;;;;;;;5.50;2.72;;;;;;;3.48;100.00;93871.94;4991198;28;20038;-64
2022/12/30 07:05:54;;;;;;;11.40;5.55;;;;;;;3.35;100.00;93873.34;4990416;28;20042;-64
2022/12/30 07:08:20;;;;;;;5.47;2.03;;;;;;;3.55;100.00;93860.38;4990912;28;20117;-64
2022/12/30 07:10:47;;;;;;;3.35;1.83;;;;;;;3.49;100.00;93859.91;4990848;28;20056;-64
2022/12/30 07:13:18;;;;;;;5.72;2.65;;;;;;;3.44;100.00;93864.91;4991171;28;20426;-64
2022/12/30 07:15:44;;;;;;;3.90;2.10;;;;;;;3.59;100.00;93867.38;4992705;28;20046;-64
2022/12/30 07:18:11;;;;;;;8.35;4.15;;;;;;;3.62;100.00;93863.16;5001207;28;20042;-64
2022/12/30 07:20:38;;;;;;;16.27;7.40;;;;;;;3.55;100.00;93872.00;4991169;28;20065;-64
2022/12/30 07:23:05;;;;;;;29.95;15.57;;;;;;;3.56;100.00;93859.22;4990284;28;20060;-65
2022/12/30 07:25:32;;;;;;;9.07;3.90;;;;;;;3.55;100.00;93866.56;4990873;28;20113;-64
2022/12/30 07:27:59;;;;;;;9.48;5.25;;;;;;;3.58;100.00;93865.84;4990190;28;20393;-65
2022/12/30 07:30:27;;;;;;;27.25;16.58;;;;;;;3.57;100.00;93869.69;4990834;28;20108;-65
2022/12/30 07:32:53;;;;;;;9.33;5.93;;;;;;;3.61;100.00;93864.31;4977610;28;20052;-64
2022/12/30 07:35:20;;;;;;;6.50;3.88;;;;;;;3.59;100.00;93863.91;4990846;28;20034;-64
2022/12/30 07:37:47;;;;;;;7.20;3.80;;;;;;;3.62;100.00;93855.00;4990342;28;20046;-64
2022/12/30 07:40:14;;;;;;;3.75;2.15;;;;;;;3.59;100.00;93851.09;4990623;28;20052;-64
2022/12/30 07:42:41;;;;;;;5.95;3.22;;;;;;;3.64;100.00;93858.13;4990147;28;20418;-64
2022/12/30 07:45:15;;;;;;;8.27;5.00;;;;;;;3.74;100.00;93867.53;4990608;28;20042;-64
2022/12/30 07:47:43;;;;;;;6.07;3.80;;;;;;;3.76;100.00;93851.66;4990128;28;20395;-64
2022/12/30 07:50:10;;;;;;;3.70;2.15;;;;;;;3.59;100.00;93851.09;4990310;28;20046;-64
2022/12/30 07:52:38;;;;;;;2.90;1.70;;;;;;;3.62;100.00;93857.72;4990204;28;20090;-64
2022/12/30 07:55:05;;;;;;;4.15;2.10;;;;;;;3.62;100.00;93851.53;4989874;28;20514;-64
2022/12/30 07:57:32;;;;;;;5.20;3.13;;;;;;;3.58;100.00;93865.03;5002138;28;20038;-64
2022/12/30 07:59:59;;;;;;;5.13;2.90;;;;;;;3.67;100.00;93859.34;4989508;28;20057;-64
2022/12/30 08:02:26;;;;;;;5.10;3.30;;;;;;;3.74;100.00;93848.53;4990010;28;20039;-65
2022/12/30 08:04:53;;;;;;;5.30;2.47;;;;;;;3.62;100.00;93846.09;4989729;28;20399;-64
2022/12/30 08:07:20;;;;;;;7.53;5.07;;;;;;;3.59;100.00;93848.41;4990557;28;20502;-64
2022/12/30 08:09:47;;;;;;;4.60;2.10;;;;;;;3.54;100.00;93854.19;4988377;28;20054;-64
2022/12/30 08:12:13;;;;;;;4.47;2.30;;;;;;;3.49;100.00;93845.59;4989989;28;20599;-64
2022/12/30 08:14:40;;;;;;;5.00;2.97;;;;;;;3.53;100.00;93858.03;4989887;28;20046;-64
2022/12/30 08:17:07;;;;;;;10.20;6.78;;;;;;;3.46;100.00;93860.69;4990052;28;20495;-64
2022/12/30 08:19:33;;;;;;;4.65;2.40;;;;;;;3.47;100.00;93853.31;4992583;28;20069;-64
2022/12/30 08:22:00;;;;;;;5.37;2.43;;;;;;;3.49;100.00;93851.00;4992329;28;20051;-64
2022/12/30 08:24:27;;;;;;;9.75;5.80;;;;;;;3.51;100.00;93846.75;4994100;28;20039;-65
2022/12/30 08:26:54;;;;;;;4.95;2.85;;;;;;;3.38;100.00;93853.59;4993726;28;20407;-64
2022/12/30 08:29:20;;;;;;;4.53;2.22;;;;;;;3.31;100.00;93850.81;4994110;28;20422;-64
2022/12/30 08:31:49;;;;;;;5.80;3.05;;;;;;;3.36;100.00;93851.28;4993589;28;20050;-64
2022/12/30 08:34:18;;;;;;;4.20;2.00;;;;;;;3.37;100.00;93860.97;4993794;28;20064;-64
2022/12/30 08:36:46;;;;;;;4.45;2.35;;;;;;;3.43;100.00;93853.28;4993788;28;20453;-64
2022/12/30 08:39:13;;;;;;;6.28;3.03;;;;;;;3.44;100.00;93859.47;4993926;28;20038;-64
2022/12/30 08:41:43;;;;;;;6.25;3.42;;;;;;;3.58;100.00;93848.75;4993572;28;20072;-63
2022/12/30 08:44:16;;;;;;;5.55;3.20;;;;;;;3.51;100.00;93846.75;4992345;28;20041;-64
2022/12/30 08:46:43;;;;;;;4.80;2.60;;;;;;;3.52;100.00;93847.53;4993240;28;20050;-64
2022/12/30 08:49:11;;;;;;;7.88;3.63;;;;;;;3.59;100.00;93848.41;4993414;28;20100;-64
2022/12/30 08:51:39;;;;;;;6.47;3.47;;;;;;;3.69;100.00;93843.47;4994382;28;20060;-64
2022/12/30 08:54:06;;;;;;;10.50;4.35;;;;;;;3.73;100.00;93845.03;4992730;28;20046;-64
2022/12/30 08:56:35;;;;;;;6.40;3.45;;;;;;;3.75;100.00;93831.09;4993874;28;20046;-64
2022/12/30 08:59:02;;;;;;;5.90;2.83;;;;;;;3.94;100.00;93836.31;4992642;28;20038;-64
2022/12/30 09:01:36;;;;;;;7.32;3.20;;;;;;;3.86;100.00;93831.19;4993381;28;20391;-65
2022/12/30 09:04:06;;;;;;;7.78;3.72;;;;;;;3.91;100.00;93834.34;4992763;28;20048;-65
2022/12/30 09:06:37;;;;;;;10.40;5.78;;;;;;;3.98;100.00;93830.91;4993568;28;20054;-65
2022/12/30 09:09:06;;;;;;;7.43;4.07;;;;;;;4.16;100.00;93833.75;4993202;28;20042;-64
2022/12/30 09:11:36;;;;;;;6.10;3.80;;;;;;;4.17;100.00;93829.91;5008757;28;20050;-66
2022/12/30 09:14:06;;;;;;;7.15;3.67;;;;;;;4.17;100.00;93822.53;5005708;28;20042;-65
2022/12/30 09:16:33;;;;;;;5.57;2.90;;;;;;;4.19;100.00;93822.94;4993274;28;20077;-65
2022/12/30 09:18:59;;;;;;;5.57;3.20;;;;;;;4.19;100.00;93825.66;4992328;28;20120;-64
2022/12/30 09:21:26;;;;;;;6.55;3.50;;;;;;;4.27;100.00;93829.19;4993314;28;20035;-65
2022/12/30 09:23:54;;;;;;;6.37;3.20;;;;;;;4.39;100.00;93818.03;4992954;28;20566;-65
2022/12/30 09:26:23;;;;;;;5.30;2.67;;;;;;;4.36;100.00;93818.78;4992615;28;20257;-65
2022/12/30 09:28:50;;;;;;;6.03;3.28;;;;;;;4.28;100.00;93821.81;4992606;28;20578;-65
2022/12/30 09:31:17;;;;;;;5.50;2.78;;;;;;;4.33;100.00;93810.63;4991905;28;20918;-65
2022/12/30 09:33:44;;;;;;;5.10;2.45;;;;;;;4.43;100.00;93803.66;5005403;28;20103;-64
2022/12/30 09:36:11;;;;;;;5.50;2.90;;;;;;;4.50;100.00;93814.59;4992866;28;20434;-65
2022/12/30 09:38:38;;;;;;;5.32;3.10;;;;;;;4.63;100.00;93806.88;4993139;28;20069;-65
2022/12/30 09:41:11;;;;;;;6.10;3.10;;;;;;;4.78;100.00;93800.38;4991827;28;20092;-65
2022/12/30 09:44:07;;;;;;;5.05;2.88;;;;;;;4.71;100.00;93782.09;4992607;28;20411;-65
2022/12/30 09:46:51;;;;;;;4.03;2.22;;;;;;;4.96;100.00;93779.47;4992146;28;20076;-65
2022/12/30 09:49:27;;;;;;;4.73;2.50;;;;;;;4.66;100.00;93784.41;4991611;28;20933;-65
2022/12/30 09:52:04;;;;;;;4.78;2.50;;;;;;;5.45;100.00;93766.38;4992259;28;20124;-65
2022/12/30 09:54:34;;;;;;;4.80;2.60;;;;;;;6.84;99.34;93769.41;4980309;28;20042;-65
2022/12/30 09:59:56;;;;;;;4.80;2.40;;;;;;;6.55;99.23;93766.78;4991789;28;20097;-66
2022/12/30 10:02:27;;;;;;;3.30;2.10;;;;;;;7.95;89.08;93763.38;4991743;28;20050;-65
2022/12/30 10:04:56;;;;;;;3.97;1.83;;;;;;;9.27;83.09;93747.53;4991794;28;20050;-65
2022/12/30 10:07:26;;;;;;;3.40;1.70;;;;;;;8.56;83.26;93757.38;4991849;28;20062;-66
2022/12/30 10:10:02;;;;;;;3.40;1.85;;;;;;;8.12;84.45;93759.69;4991860;28;20545;-66
2022/12/30 10:12:37;;;;;;;3.33;2.03;;;;;;;6.74;92.94;93754.66;5005428;28;20051;-65
2022/12/30 10:15:16;;;;;;;3.57;1.80;;;;;;;6.59;94.59;93751.97;4991741;28;20091;-64
2022/12/30 10:18:17;;;;;;;3.38;1.77;;;;;;;6.45;96.84;93743.06;4992014;28;20088;-64
2022/12/30 10:20:48;;;;;;;3.90;2.47;;;;;;;6.11;99.69;93751.66;4991644;28;20050;-65
2022/12/30 10:23:46;;;;;;;3.55;1.90;;;;;;;5.63;100.00;93741.16;4991935;28;20515;-65
2022/12/30 10:26:16;;;;;;;3.50;1.90;;;;;;;5.53;100.00;93739.97;4990688;28;20818;-65
2022/12/30 10:28:47;;;;;;;4.63;2.20;;;;;;;5.20;100.00;93737.19;4992060;28;20039;-65
2022/12/30 10:31:28;;;;;;;3.92;1.80;;;;;;;5.22;100.00;93736.81;4991632;28;20053;-64
2022/12/30 10:34:04;;;;;;;5.72;1.92;;;;;;;5.24;100.00;93731.00;4991323;28;20050;-65
2022/12/30 10:36:51;;;;;;;3.70;2.10;;;;;;;5.27;100.00;93731.00;4991724;28;20119;-65
2022/12/30 10:39:24;;;;;;;3.42;1.88;;;;;;;5.24;100.00;93720.13;5003357;28;20058;-65
2022/12/30 10:42:11;;;;;;;3.70;2.10;;;;;;;4.94;100.00;93704.88;4990557;28;20050;-65
2022/12/30 10:44:55;;;;;;;4.00;1.90;;;;;;;5.07;100.00;93708.81;4991942;28;20472;-65
2022/12/30 10:47:39;;;;;;;4.15;1.92;;;;;;;5.00;100.00;93716.94;4990442;28;20573;-65
2022/12/30 10:50:15;;;;;;;3.90;2.25;;;;;;;4.95;100.00;93707.22;4990337;28;20852;-64
2022/12/30 10:52:42;;;;;;;3.65;2.00;;;;;;;5.12;100.00;93702.97;4991231;28;20043;-64
2022/12/30 10:55:20;;;;;;;4.10;2.30;;;;;;;5.12;100.00;93708.41;4991308;28;20042;-65
2022/12/30 10:57:51;;;;;;;4.10;2.08;;;;;;;5.11;100.00;93701.44;4984340;28;20068;-65
2022/12/30 11:00:20;;;;;;;3.58;2.10;;;;;;;5.22;100.00;93696.00;4997159;28;20048;-65
2022/12/30 11:03:05;;;;;;;3.28;1.90;;;;;;;5.15;100.00;93690.53;5066486;27;20394;-65
2022/12/30 11:05:39;;;;;;;3.50;1.90;;;;;;;5.19;100.00;93694.03;5066756;28;20498;-65
2022/12/30 11:08:20;;;;;;;6.03;2.58;;;;;;;5.23;100.00;93703.00;5066433;28;20033;-65
2022/12/30 11:11:02;;;;;;;4.70;2.00;;;;;;;5.33;100.00;93701.44;5066668;28;20051;-65
2022/12/30 11:16:31;;;;;;;3.55;2.10;;;;;;;5.12;100.00;93686.66;5053366;28;20679;-65
2022/12/30 11:19:02;;;;;;;3.33;1.75;;;;;;;5.28;100.00;93678.13;5066015;28;20441;-65
2022/12/30 11:21:38;;;;;;;4.75;2.35;;;;;;;5.41;100.00;93678.53;5063238;28;20043;-65
2022/12/30 11:24:05;;;;;;;3.97;2.10;;;;;;;5.44;100.00;93685.16;5062947;28;20045;-65
2022/12/30 11:26:33;;;;;;;3.72;1.90;;;;;;;5.42;100.00;93671.94;5056449;28;20032;-65
2022/12/30 11:29:17;;;;;;;3.35;1.90;;;;;;;5.40;100.00;93679.69;5065668;28;20041;-65
2022/12/30 11:31:47;;;;;;;4.30;2.40;;;;;;;5.51;100.00;93685.91;5065875;28;20057;-65
2022/12/30 11:34:29;;;;;;;4.28;1.90;;;;;;;5.60;100.00;93678.16;5065838;28;20074;-65
2022/12/30 11:36:56;;;;;;;3.93;2.07;;;;;;;5.62;100.00;93680.47;5066189;28;20094;-65
2022/12/30 11:39:23;;;;;;;3.42;1.65;;;;;;;5.51;100.00;93674.25;5052762;28;20045;-65
2022/12/30 11:41:55;;;;;;;3.40;1.77;;;;;;;5.44;100.00;93672.31;5065639;28;20055;-65
2022/12/30 11:44:28;;;;;;;3.90;2.00;;;;;;;5.56;100.00;93676.59;5037438;28;20040;-65
2022/12/30 11:47:00;;;;;;;5.18;2.13;;;;;;;5.71;100.00;93682.81;5065173;28;20051;-65
2022/12/30 11:49:47;;;;;;;5.03;2.33;;;;;;;5.67;100.00;93669.19;5035153;28;20414;-65
2022/12/30 11:52:26;;;;;;;4.60;2.60;;;;;;;5.84;100.00;93666.84;5064517;28;20138;-65
2022/12/30 11:55:03;;;;;;;3.80;1.80;;;;;;;5.73;100.00;93664.13;5065695;28;20051;-65
2022/12/30 11:57:42;;;;;;;3.28;1.45;;;;;;;5.55;100.00;93662.22;5052054;28;20034;-65
2022/12/30 12:00:12;;;;;;;4.53;2.45;;;;;;;5.67;100.00;93657.53;5064714;28;20627;-65
2022/12/30 12:02:44;;;;;;;3.57;1.73;;;;;;;5.64;100.00;93663.75;5064893;28;20071;-65
2022/12/30 12:05:19;;;;;;;4.10;2.08;;;;;;;5.61;100.00;93659.84;5064659;28;20878;-66
2022/12/30 12:07:48;;;;;;;3.42;1.73;;;;;;;5.35;100.00;93653.66;5065062;28;20041;-65
2022/12/30 12:10:23;;;;;;;3.17;1.67;;;;;;;5.17;100.00;93644.69;5065399;28;20401;-65
2022/12/30 12:12:57;;;;;;;3.25;1.67;;;;;;;5.26;100.00;93661.41;5059513;28;20041;-65
2022/12/30 12:16:02;;;;;;;3.60;1.80;;;;;;;5.26;100.00;93653.25;5052107;28;20045;-65
2022/12/30 12:18:40;;;;;;;3.80;1.85;;;;;;;5.26;100.00;93641.59;5006354;28;20048;-65
2022/12/30 12:21:15;;;;;;;4.50;2.42;;;;;;;5.23;100.00;93634.97;5050622;28;20409;-65
2022/12/30 12:23:55;;;;;;;6.25;2.95;;;;;;;5.38;100.00;93633.06;5049147;28;20393;-65
2022/12/30 12:26:24;;;;;;;7.03;3.55;;;;;;;5.33;100.00;93633.44;5042965;28;20059;-65
2022/12/30 12:28:53;;;;;;;6.43;3.37;;;;;;;5.27;100.00;93634.97;5051897;28;20052;-65
2022/12/30 12:31:38;;;;;;;6.13;3.22;;;;;;;5.33;100.00;93636.94;5051773;28;20078;-65
2022/12/30 12:34:50;;;;;;;4.80;2.60;;;;;;;5.25;100.00;93634.59;5050541;28;20477;-65
2022/12/30 12:37:32;;;;;;;4.85;2.70;;;;;;;5.42;100.00;93641.22;5050738;28;20094;-65
2022/12/30 12:40:10;;;;;;;4.88;2.65;;;;;;;5.44;100.00;93633.44;5033069;28;20046;-65
2022/12/30 12:43:01;;;;;;;5.47;2.80;;;;;;;5.48;100.00;93632.28;5032251;28;20059;-63
2022/12/30 12:45:46;;;;;;;4.80;2.72;;;;;;;5.52;100.00;93624.88;5045280;28;20563;-62